< < Back
Terminal Aerodrome Forecast


Current Version              Previous Versions:   1  2  3  4  5  6  7  8  9  

Terminal Aerodrome Forecast

488
FTUS42 KMLB 181100
TAFDAB
TAF
KDAB 181123Z 1812/1912 32004KT P6SM BKN250
     FM190100 34002KT P6SM BKN250=



Latest METAR

729
SAUS80 KWBC 190000 RRB
MTRDAB
METAR KDAB 182353Z 00000KT 10SM FEW140 BKN200 14/10 A3012 RMK AO2 SLP198
T01440100 10200 20133 51008


USA.gov is the U.S. government's official web portal to all federal, state and local government web resources and services.